• Join FlightAware (Why Join?)
  • Login
  • US Flag 
05:49AM EDT


 

Airport Tracker/Info


-or-


 

Live Flight TrackerFlight Track Log ✈ UCA3596 ✈ 18-Oct-2013 ✈ KIAD - KBGM

Flight Track Log - Related Links

Times and Time Zones

All times are in EDT time to prevent confusion due to time zone crossing. See the UCA3596 flight status page for this flight to view local times or setup timezone preferences in your user account.

Time Position Orientation Groundspeed Altitude Reporting Facility
EDT Latitude Longitude Course Direction KTS MPH feet Rate Location/Type
01:11PM 39.5744 -77.1869 19° North  Level Estimated
01:12PM 39.6441 -77.1563 19° North  Level Estimated
01:13PM 39.7137 -77.1256 19° North  Level Estimated
01:14PM 39.7833 -77.0948 19° North  Level Estimated
01:15PM 39.8529 -77.0640 19° North  Level Estimated
01:16PM 39.9225 -77.0331 19° North  Level Estimated
01:17PM 39.9921 -77.0022 19° North  Level Estimated
01:18PM 40.0617 -76.9712 19° North  Level Estimated
01:19PM 40.1312 -76.9401 19° North  Level Estimated
01:20PM 40.2008 -76.9089 19° North  Level Estimated
01:21PM 40.2703 -76.8777 19° North  Level Estimated
01:22PM 40.3399 -76.8465 19° North  Level Estimated
01:23PM 40.4094 -76.8151 19° North  Level Estimated
01:24PM 40.4790 -76.7837 19° North  Level Estimated
01:25PM 40.5485 -76.7523 19° North  Level Estimated
01:26PM 40.6180 -76.7207 19° North  Level Estimated
01:27PM 40.6875 -76.6891 19° North  Level Estimated
01:28PM 40.7570 -76.6575 19° North  Level Estimated
01:29PM 40.8265 -76.6257 19° North  Level Estimated
01:30PM 40.8959 -76.5940 19° North  Level Estimated
01:31PM 40.9654 -76.5621 19° North  Level Estimated
01:32PM 41.0349 -76.5302 19° North  Level Estimated
01:33PM 41.1043 -76.4982 19° North  Level Estimated
01:34PM 41.1738 -76.4661 19° North  Level Estimated
01:35PM 41.2432 -76.4340 19° North  Level Estimated
01:36PM 41.3126 -76.4018 19° North  Level Estimated
01:37PM 41.3820 -76.3695 19° North  Level Estimated
01:38PM 41.4514 -76.3372 19° North  Level Estimated
01:39PM 41.5208 -76.3048 19° North  Level Estimated
01:40PM 41.5902 -76.2723 19° North  Level Estimated
01:41PM 41.6596 -76.2397 19° North  Level Estimated
01:42PM 41.7290 -76.2071 19° North  Level Estimated
01:43PM 41.7983 -76.1744 19° North  Level Estimated
01:44PM 41.8677 -76.1417 19° North  Level Estimated
01:45PM 41.9370 -76.1088 19° North  Level Estimated
01:46PM 42.0063 -76.0759 19° North  Level Estimated
01:47PM 42.0756 -76.0430 19° North  Level Estimated
01:48PM 42.1450 -76.0099 19° North  Level Estimated
01:49PM 42.2084 -75.9796 19° North  Level Estimated
01:50PM 42.2084 -75.9796 35° Northeast  Level Estimated
01:51PM 42.2084 -75.9796 35° Northeast  Level Estimated
01:52PM 42.2084 -75.9796 35° Northeast  Level Estimated
01:53PM 42.2084 -75.9796 35° Northeast  Level Estimated
01:54PM 42.2084 -75.9796 35° Northeast  Level Estimated
01:55PM 42.2084 -75.9796 35° Northeast  Level Estimated